createdAt,value
2023-04-11T00:00:10.557Z,97.56
2023-04-11T00:01:10.810Z,97.56
2023-04-11T00:02:11.212Z,97.56
2023-04-11T00:03:11.571Z,97.66
2023-04-11T00:04:11.735Z,97.46
2023-04-11T00:05:12.020Z,97.50
2023-04-11T00:06:12.308Z,97.50
2023-04-11T00:07:12.594Z,97.71
2023-04-11T00:08:12.883Z,97.71
2023-04-11T00:09:13.170Z,97.81
2023-04-11T00:10:13.443Z,98.02
2023-04-11T00:11:13.719Z,97.97
2023-04-11T00:12:13.965Z,98.07
2023-04-11T00:13:14.233Z,97.97
2023-04-11T00:14:14.489Z,97.87
2023-04-11T00:15:22.961Z,97.77
2023-04-11T00:16:15.026Z,97.66
2023-04-11T00:17:15.238Z,97.77
2023-04-11T00:18:17.194Z,97.25
2023-04-11T00:19:15.999Z,96.95
2023-04-11T00:20:16.039Z,97.25
2023-04-11T00:21:16.324Z,97.15
2023-04-11T00:22:16.580Z,97.15
2023-04-11T00:23:16.862Z,97.36
2023-04-11T00:24:17.080Z,97.05
2023-04-11T00:25:17.356Z,95.21
2023-04-11T00:26:17.629Z,95.51
2023-04-11T00:27:19.107Z,95.41
2023-04-11T00:28:18.203Z,95.72
2023-04-11T00:29:18.444Z,94.80
2023-04-11T00:30:18.702Z,93.98
2023-04-11T00:31:19.035Z,93.67
2023-04-11T00:32:19.279Z,93.47
2023-04-11T00:33:19.548Z,93.88
2023-04-11T00:34:19.813Z,93.98
2023-04-11T00:35:20.065Z,93.67
2023-04-11T00:36:20.395Z,93.88
2023-04-11T00:37:20.639Z,95.41
2023-04-11T00:38:20.922Z,96.03
2023-04-11T00:39:21.164Z,95.92
2023-04-11T00:40:21.452Z,96.03
2023-04-11T00:41:21.772Z,95.82
2023-04-11T00:42:22.046Z,94.90
2023-04-11T00:43:22.285Z,94.49
2023-04-11T00:44:22.563Z,95.31
2023-04-11T00:45:22.811Z,94.39
2023-04-11T00:46:23.111Z,94.49
2023-04-11T00:47:23.401Z,93.98
2023-04-11T00:48:23.652Z,94.49
2023-04-11T00:49:23.917Z,94.70
2023-04-11T00:50:24.218Z,94.70
2023-04-11T00:51:24.507Z,94.29
2023-04-11T00:52:24.787Z,94.70
2023-04-11T00:53:25.059Z,94.90
2023-04-11T00:54:25.332Z,96.03
2023-04-11T00:55:25.615Z,96.33
2023-04-11T00:56:25.919Z,96.13
2023-04-11T00:57:26.236Z,96.03
2023-04-11T00:58:26.434Z,96.33
2023-04-11T00:59:26.753Z,96.23
2023-04-11T01:00:27.005Z,95.82
2023-04-11T01:01:27.300Z,96.33
2023-04-11T01:02:27.634Z,96.33
2023-04-11T01:03:27.907Z,96.54
2023-04-11T01:04:28.076Z,96.54
2023-04-11T01:05:28.337Z,96.84
2023-04-11T01:06:28.584Z,96.95
2023-04-11T01:07:28.860Z,96.84
2023-04-11T01:08:29.096Z,96.74
2023-04-11T01:09:29.385Z,96.74
2023-04-11T01:10:29.639Z,97.36
2023-04-11T01:11:29.932Z,97.36
2023-04-11T01:12:30.199Z,97.36
2023-04-11T01:13:30.440Z,97.30
2023-04-11T01:14:30.745Z,97.20
2023-04-11T01:15:30.983Z,97.30
2023-04-11T01:16:31.264Z,97.20
2023-04-11T01:17:31.568Z,97.20
2023-04-11T01:18:31.780Z,97.09
2023-04-11T01:19:32.068Z,97.09
2023-04-11T01:20:32.321Z,96.63
2023-04-11T01:21:32.591Z,97.24
2023-04-11T01:22:32.873Z,97.14
2023-04-11T01:23:33.109Z,97.04
2023-04-11T01:24:33.418Z,97.34
2023-04-11T01:25:33.660Z,97.34
2023-04-11T01:26:33.951Z,97.34
2023-04-11T01:27:34.225Z,97.24
2023-04-11T01:28:34.485Z,97.24
2023-04-11T01:29:34.746Z,96.88
2023-04-11T01:30:35.047Z,96.57
2023-04-11T01:31:35.319Z,96.67
2023-04-11T01:32:35.593Z,96.57
2023-04-11T01:33:35.836Z,96.67
2023-04-11T01:34:36.093Z,96.78
2023-04-11T01:35:36.366Z,96.88
2023-04-11T01:36:36.640Z,97.19
2023-04-11T01:37:36.892Z,97.19
2023-04-11T01:38:37.148Z,96.98
2023-04-11T01:39:37.406Z,97.39
2023-04-11T01:40:37.660Z,97.39
2023-04-11T01:41:37.947Z,97.49
2023-04-11T01:42:38.172Z,97.49
2023-04-11T01:43:38.423Z,97.60
2023-04-11T01:44:38.702Z,97.39
2023-04-11T01:45:38.959Z,97.70
2023-04-11T01:46:39.261Z,97.70
2023-04-11T01:47:39.628Z,97.70
2023-04-11T01:48:40.002Z,97.80
2023-04-11T01:49:40.108Z,97.49
2023-04-11T01:50:40.360Z,97.29
2023-04-11T01:51:40.636Z,97.39
2023-04-11T01:52:40.891Z,97.39
2023-04-11T01:53:41.150Z,97.39
2023-04-11T01:54:41.436Z,96.98
2023-04-11T01:55:41.703Z,97.23
2023-04-11T01:56:42.005Z,96.82
2023-04-11T01:57:42.276Z,96.92
2023-04-11T01:58:42.533Z,96.82
2023-04-11T01:59:42.792Z,96.62
2023-04-11T02:00:43.084Z,96.82
2023-04-11T02:01:43.406Z,96.72
2023-04-11T02:02:43.802Z,96.92
2023-04-11T02:03:43.988Z,96.62
2023-04-11T02:04:44.265Z,96.41
2023-04-11T02:05:44.531Z,95.75
2023-04-11T02:06:44.826Z,95.44
2023-04-11T02:07:45.206Z,95.75
2023-04-11T02:08:45.414Z,95.75
2023-04-11T02:09:45.660Z,95.75
2023-04-11T02:10:45.910Z,95.75
2023-04-11T02:11:46.213Z,96.06
2023-04-11T02:12:46.503Z,96.06
2023-04-11T02:13:46.775Z,95.44
2023-04-11T02:14:47.021Z,95.34
2023-04-11T02:15:47.312Z,95.44
2023-04-11T02:16:47.550Z,95.34
2023-04-11T02:17:47.837Z,95.34
2023-04-11T02:18:48.099Z,95.14
2023-04-11T02:19:48.354Z,94.93
2023-04-11T02:20:48.625Z,94.11
2023-04-11T02:21:48.907Z,93.70
2023-04-11T02:22:49.177Z,93.60
2023-04-11T02:23:49.477Z,93.80
2023-04-11T02:24:49.771Z,93.80
2023-04-11T02:25:50.033Z,93.95
2023-04-11T02:26:50.324Z,94.15
2023-04-11T02:27:50.614Z,94.15
2023-04-11T02:28:50.900Z,94.05
2023-04-11T02:29:51.177Z,94.15
2023-04-11T02:30:51.503Z,94.46
2023-04-11T02:31:52.061Z,94.15
2023-04-11T02:32:52.140Z,94.36
2023-04-11T02:33:52.337Z,94.26
2023-04-11T02:34:52.583Z,94.15
2023-04-11T02:35:52.970Z,94.77
2023-04-11T02:36:53.249Z,94.77
2023-04-11T02:37:53.498Z,94.67
2023-04-11T02:38:54.065Z,94.56
2023-04-11T02:39:53.976Z,94.77
2023-04-11T02:40:54.239Z,95.07
2023-04-11T02:41:54.541Z,95.07
2023-04-11T02:42:54.790Z,95.02
2023-04-11T02:43:55.080Z,95.12
2023-04-11T02:44:55.328Z,95.23
2023-04-11T02:46:05.634Z,95.23
2023-04-11T02:46:56.851Z,95.43
2023-04-11T02:47:56.134Z,95.43
2023-04-11T02:48:56.517Z,96.04
2023-04-11T02:49:56.686Z,95.84
2023-04-11T02:50:56.974Z,95.74
2023-04-11T02:51:57.249Z,95.84
2023-04-11T02:52:57.534Z,95.78
2023-04-11T02:53:57.841Z,95.98
2023-04-11T02:54:58.063Z,95.98
2023-04-11T02:55:58.324Z,95.98
2023-04-11T02:56:58.603Z,96.09
2023-04-11T02:57:58.889Z,96.19
2023-04-11T02:58:59.224Z,96.19
2023-04-11T02:59:59.501Z,96.09
2023-04-11T03:00:59.794Z,95.47
2023-04-11T03:02:00.175Z,95.27
2023-04-11T03:03:00.378Z,95.17
2023-04-11T03:04:00.836Z,95.12
2023-04-11T03:05:00.945Z,95.02
2023-04-11T03:06:01.222Z,94.61
2023-04-11T03:07:01.527Z,94.71
2023-04-11T03:08:01.785Z,94.30
2023-04-11T03:09:02.149Z,94.20
2023-04-11T03:10:02.365Z,94.20
2023-04-11T03:11:02.633Z,94.10
2023-04-11T03:12:02.920Z,93.99
2023-04-11T03:13:03.210Z,93.89
2023-04-11T03:14:03.465Z,94.10
2023-04-11T03:15:03.734Z,94.10
2023-04-11T03:16:04.059Z,93.79
2023-04-11T03:17:04.349Z,93.89
2023-04-11T03:18:04.616Z,93.99
2023-04-11T03:19:04.937Z,93.83
2023-04-11T03:20:05.195Z,94.04
2023-04-11T03:21:05.480Z,94.04
2023-04-11T03:22:05.763Z,94.24
2023-04-11T03:23:06.019Z,94.34
2023-04-11T03:24:06.290Z,94.14
2023-04-11T03:25:06.582Z,94.04
2023-04-11T03:26:06.862Z,94.08
2023-04-11T03:27:07.157Z,94.08
2023-04-11T03:28:07.449Z,94.18
2023-04-11T03:29:07.723Z,94.39
2023-04-11T03:30:08.018Z,94.39
2023-04-11T03:31:08.396Z,94.29
2023-04-11T03:32:08.634Z,94.49
2023-04-11T03:33:08.926Z,94.18
2023-04-11T03:34:09.168Z,93.87
2023-04-11T03:35:09.474Z,94.18
2023-04-11T03:36:09.789Z,94.39
2023-04-11T03:37:10.016Z,94.08
2023-04-11T03:38:10.290Z,94.08
2023-04-11T03:39:10.561Z,94.18
2023-04-11T03:40:10.812Z,94.08
2023-04-11T03:41:11.103Z,94.49
2023-04-11T03:42:11.397Z,94.70
2023-04-11T03:43:11.696Z,95.01
2023-04-11T03:44:11.969Z,94.80
2023-04-11T03:45:12.234Z,94.90
2023-04-11T03:46:12.521Z,95.21
2023-04-11T03:47:12.781Z,95.21
2023-04-11T03:48:13.028Z,95.21
2023-04-11T03:49:13.311Z,95.10
2023-04-11T03:50:13.561Z,95.10
2023-04-11T03:51:13.839Z,94.59
2023-04-11T03:52:14.121Z,94.29
2023-04-11T03:53:14.406Z,93.98
2023-04-11T03:54:14.661Z,93.98
2023-04-11T03:55:14.925Z,94.70
2023-04-11T03:56:15.190Z,94.70
2023-04-11T03:57:15.478Z,94.70
2023-04-11T03:58:15.734Z,94.70
2023-04-11T03:59:16.032Z,94.59
2023-04-11T04:00:16.285Z,94.70
2023-04-11T04:01:16.577Z,94.70
2023-04-11T04:02:16.903Z,95.01
2023-04-11T04:03:17.451Z,94.29
2023-04-11T04:04:17.573Z,94.29
2023-04-11T04:05:17.798Z,94.18
2023-04-11T04:06:18.071Z,93.98
2023-04-11T04:07:18.361Z,93.98
2023-04-11T04:08:18.660Z,94.18
2023-04-11T04:09:18.962Z,93.98
2023-04-11T04:10:19.222Z,93.36
2023-04-11T04:11:19.506Z,92.95
2023-04-11T04:12:19.807Z,92.40
2023-04-11T04:13:20.121Z,92.08
2023-04-11T04:14:20.423Z,91.88
2023-04-11T04:15:20.704Z,91.88
2023-04-11T04:16:21.084Z,91.99
2023-04-11T04:17:21.320Z,92.13
2023-04-11T04:18:21.618Z,91.82
2023-04-11T04:19:21.911Z,91.61
2023-04-11T04:20:22.204Z,91.31
2023-04-11T04:21:22.522Z,91.82
2023-04-11T04:22:22.861Z,91.31
2023-04-11T04:23:23.143Z,91.41
2023-04-11T04:24:23.453Z,90.89
2023-04-11T04:25:25.566Z,91.00
2023-04-11T04:26:23.999Z,91.41
2023-04-11T04:27:24.287Z,91.51
2023-04-11T04:28:24.543Z,91.20
2023-04-11T04:29:24.824Z,91.31
2023-04-11T04:30:25.098Z,91.31
2023-04-11T04:31:25.385Z,91.31
2023-04-11T04:32:25.720Z,91.31
2023-04-11T04:33:27.628Z,91.76
2023-04-11T04:34:26.278Z,91.66
2023-04-11T04:35:26.662Z,91.66
2023-04-11T04:36:26.788Z,91.86
2023-04-11T04:37:27.262Z,92.17
2023-04-11T04:38:27.413Z,92.07
2023-04-11T04:39:27.675Z,92.07
2023-04-11T04:40:27.965Z,91.86
2023-04-11T04:41:28.251Z,92.48
2023-04-11T04:42:28.517Z,92.48
2023-04-11T04:43:28.796Z,92.89
2023-04-11T04:44:29.097Z,92.79
2023-04-11T04:45:29.416Z,93.04
2023-04-11T04:46:29.701Z,92.63
2023-04-11T04:47:30.055Z,92.73
2023-04-11T04:48:30.318Z,92.83
2023-04-11T04:49:30.635Z,92.93
2023-04-11T04:50:30.925Z,92.63
2023-04-11T04:51:31.250Z,93.55
2023-04-11T04:52:31.553Z,93.55
2023-04-11T04:53:31.847Z,93.65
2023-04-11T04:54:32.166Z,94.27
2023-04-11T04:55:32.484Z,94.07
2023-04-11T04:56:32.790Z,93.76
2023-04-11T04:57:33.108Z,93.24
2023-04-11T04:58:33.378Z,93.65
2023-04-11T04:59:33.689Z,93.76
2023-04-11T05:00:33.979Z,93.76
2023-04-11T05:01:34.273Z,94.17
2023-04-11T05:02:34.645Z,94.17
2023-04-11T05:03:35.085Z,94.37
2023-04-11T05:04:35.203Z,94.48
2023-04-11T05:05:35.506Z,94.07
2023-04-11T05:06:35.826Z,94.02
2023-04-11T05:07:36.132Z,93.71
2023-04-11T05:08:36.445Z,93.61
2023-04-11T05:09:36.738Z,93.82
2023-04-11T05:10:37.027Z,94.23
2023-04-11T05:11:37.346Z,93.92
2023-04-11T05:12:37.691Z,93.82
2023-04-11T05:13:37.941Z,93.71
2023-04-11T05:14:38.246Z,93.51
2023-04-11T05:15:38.565Z,93.36
2023-04-11T05:16:38.924Z,93.26
2023-04-11T05:17:39.225Z,93.16
2023-04-11T05:18:39.500Z,93.46
2023-04-11T05:19:39.796Z,93.46
2023-04-11T05:20:40.118Z,93.57
2023-04-11T05:21:40.477Z,93.16
2023-04-11T05:22:40.765Z,92.95
2023-04-11T05:23:41.058Z,93.05
2023-04-11T05:24:41.340Z,92.70
2023-04-11T05:25:41.632Z,93.12
2023-04-11T05:26:41.940Z,93.21
2023-04-11T05:27:42.270Z,92.91
2023-04-11T05:28:42.582Z,93.01
2023-04-11T05:29:42.887Z,92.70
2023-04-11T05:30:43.220Z,92.40
2023-04-11T05:31:43.606Z,91.99
2023-04-11T05:32:43.785Z,91.78
2023-04-11T05:33:44.026Z,91.88
2023-04-11T05:34:44.344Z,91.78
2023-04-11T05:35:44.661Z,91.78
2023-04-11T05:36:44.953Z,91.27
2023-04-11T05:37:45.238Z,91.12
2023-04-11T05:38:45.517Z,91.42
2023-04-11T05:39:45.835Z,91.33
2023-04-11T05:40:46.189Z,90.71
2023-04-11T05:41:46.518Z,90.30
2023-04-11T05:42:46.807Z,90.40
2023-04-11T05:43:47.133Z,90.30
2023-04-11T05:44:47.423Z,89.99
2023-04-11T05:45:48.107Z,89.99
2023-04-11T05:46:48.035Z,90.26
2023-04-11T05:47:48.419Z,89.95
2023-04-11T05:48:48.597Z,89.75
2023-04-11T05:49:48.897Z,89.54
2023-04-11T05:50:49.228Z,89.43
2023-04-11T05:51:49.580Z,89.03
2023-04-11T05:52:49.783Z,88.57
2023-04-11T05:53:50.115Z,88.37
2023-04-11T05:54:50.405Z,88.06
2023-04-11T05:55:50.713Z,87.55
2023-04-11T05:56:51.035Z,87.51
2023-04-11T05:57:51.329Z,87.41
2023-04-11T05:58:51.668Z,86.85
2023-04-11T05:59:52.051Z,84.55
2023-04-11T06:00:52.352Z,82.15
2023-04-11T06:01:52.595Z,80.16
2023-04-11T06:02:52.999Z,77.75
2023-04-11T06:03:53.355Z,77.62
2023-04-11T06:04:53.519Z,78.67
2023-04-11T06:05:53.776Z,79.32
2023-04-11T06:06:54.262Z,80.07
2023-04-11T06:07:54.405Z,80.73
2023-04-11T06:08:54.611Z,81.13
2023-04-11T06:09:54.943Z,81.58
2023-04-11T06:10:55.292Z,81.99
2023-04-11T06:11:55.599Z,82.60
2023-04-11T06:12:56.056Z,83.52
2023-04-11T06:13:56.331Z,83.52
2023-04-11T06:14:56.427Z,83.22
2023-04-11T06:16:03.679Z,82.36
2023-04-11T06:16:56.922Z,81.74
2023-04-11T06:17:57.158Z,81.54
2023-04-11T06:18:57.488Z,81.74
2023-04-11T06:19:57.782Z,81.58
2023-04-11T06:20:58.121Z,82.09
2023-04-11T06:21:58.477Z,82.43
2023-04-11T06:22:58.723Z,82.98
2023-04-11T06:23:58.911Z,83.70
2023-04-11T06:24:59.278Z,84.22
2023-04-11T06:25:59.491Z,84.48
2023-04-11T06:26:59.802Z,83.66
2023-04-11T06:28:00.163Z,82.54
2023-04-11T06:29:00.391Z,83.11
2023-04-11T06:30:00.736Z,82.87
2023-04-11T06:31:01.011Z,81.46
2023-04-11T06:32:01.204Z,80.14
2023-04-11T06:33:01.489Z,80.24
2023-04-11T06:34:01.684Z,80.58
2023-04-11T06:35:01.903Z,80.48
2023-04-11T06:36:04.258Z,80.38
2023-04-11T06:37:02.437Z,80.89
2023-04-11T06:38:02.865Z,81.10
2023-04-11T06:39:03.027Z,80.69
2023-04-11T06:40:03.243Z,80.48
2023-04-11T06:41:03.558Z,80.58
2023-04-11T06:42:03.879Z,80.69
2023-04-11T06:43:04.261Z,80.89
2023-04-11T06:44:04.461Z,80.48
2023-04-11T06:45:04.782Z,80.07
2023-04-11T06:46:05.155Z,80.79
2023-04-11T06:47:05.456Z,81.30
2023-04-11T06:48:05.748Z,81.30
2023-04-11T06:49:05.906Z,81.71
2023-04-11T06:50:06.217Z,81.85
2023-04-11T06:51:06.545Z,81.74
2023-04-11T06:52:06.878Z,80.83
2023-04-11T06:53:07.183Z,81.85
2023-04-11T06:54:07.521Z,82.05
2023-04-11T06:55:07.760Z,81.65
2023-04-11T06:56:08.074Z,81.79
2023-04-11T06:57:08.351Z,81.99
2023-04-11T06:58:08.663Z,82.81
2023-04-11T06:59:08.977Z,81.99
2023-04-11T07:00:09.293Z,81.79
2023-04-11T07:01:09.633Z,81.27
2023-04-11T07:02:10.026Z,81.38
2023-04-11T07:03:10.435Z,81.99
2023-04-11T07:04:10.582Z,81.58
2023-04-11T07:05:10.748Z,80.90
2023-04-11T07:06:11.086Z,80.90
2023-04-11T07:07:11.314Z,81.93
2023-04-11T07:08:11.637Z,82.13
2023-04-11T07:09:11.989Z,82.64
2023-04-11T07:10:12.257Z,82.54
2023-04-11T07:11:12.579Z,82.64
2023-04-11T07:12:12.930Z,82.70
2023-04-11T07:13:13.150Z,82.70
2023-04-11T07:14:13.587Z,81.68
2023-04-11T07:15:13.789Z,81.27
2023-04-11T07:16:14.163Z,80.66
2023-04-11T07:17:14.442Z,79.80
2023-04-11T07:18:14.975Z,80.18
2023-04-11T07:19:15.088Z,79.63
2023-04-11T07:20:15.430Z,78.27
2023-04-11T07:21:15.656Z,77.68
2023-04-11T07:22:15.987Z,76.87
2023-04-11T07:23:16.316Z,76.93
2023-04-11T07:24:16.647Z,75.23
2023-04-11T07:25:17.127Z,71.67
2023-04-11T07:26:17.232Z,70.82
2023-04-11T07:27:17.612Z,69.91
2023-04-11T07:28:17.813Z,68.70
2023-04-11T07:29:18.131Z,68.49
2023-04-11T07:30:18.484Z,65.05
2023-04-11T07:31:18.777Z,64.55
2023-04-11T07:32:18.941Z,61.63
2023-04-11T07:33:19.280Z,62.47
2023-04-11T07:34:19.531Z,60.66
2023-04-11T07:35:19.769Z,61.33
2023-04-11T07:36:19.974Z,61.21
2023-04-11T07:37:20.291Z,62.31
2023-04-11T07:38:20.649Z,63.89
2023-04-11T07:39:20.833Z,65.68
2023-04-11T07:40:21.174Z,65.44
2023-04-11T07:41:21.523Z,64.91
2023-04-11T07:42:21.818Z,65.48
2023-04-11T07:43:22.177Z,66.12
2023-04-11T07:44:23.928Z,66.76
2023-04-11T07:45:22.661Z,67.91
2023-04-11T07:46:23.003Z,67.43
2023-04-11T07:47:23.309Z,68.14
2023-04-11T07:48:23.628Z,68.65
2023-04-11T07:49:23.871Z,69.36
2023-04-11T07:50:24.105Z,67.00
2023-04-11T07:51:24.357Z,62.43
2023-04-11T07:52:24.561Z,60.39
2023-04-11T07:53:24.913Z,59.94
2023-04-11T07:54:25.215Z,61.01
2023-04-11T07:55:25.523Z,61.55
2023-04-11T07:56:25.797Z,62.59
2023-04-11T07:57:26.152Z,61.72
2023-04-11T07:58:26.403Z,57.90
2023-04-11T07:59:26.596Z,50.76
2023-04-11T08:00:26.989Z,52.01
2023-04-11T08:01:27.259Z,52.11
2023-04-11T08:02:27.615Z,54.13
2023-04-11T08:03:27.850Z,55.49
2023-04-11T08:04:28.048Z,56.85
2023-04-11T08:05:28.420Z,58.05
2023-04-11T08:06:28.527Z,58.48
2023-04-11T08:07:28.850Z,59.19
2023-04-11T08:08:29.241Z,59.52
2023-04-11T08:09:29.398Z,59.27
2023-04-11T08:10:29.767Z,56.68
2023-04-11T08:11:30.002Z,53.00
2023-04-11T08:12:30.321Z,53.38
2023-04-11T08:13:30.684Z,54.73
2023-04-11T08:14:30.978Z,55.59
2023-04-11T08:15:31.163Z,55.84
2023-04-11T08:16:31.501Z,52.72
2023-04-11T08:17:31.876Z,54.10
2023-04-11T08:18:32.184Z,54.79
2023-04-11T08:19:32.564Z,54.05
2023-04-11T08:20:32.771Z,54.21
2023-04-11T08:21:32.949Z,50.68
2023-04-11T08:22:33.288Z,49.26
2023-04-11T08:23:33.724Z,46.51
2023-04-11T08:24:33.918Z,45.39
2023-04-11T08:25:34.230Z,43.19
2023-04-11T08:26:34.549Z,42.23
2023-04-11T08:27:34.856Z,39.90
2023-04-11T08:28:35.236Z,38.17
2023-04-11T08:29:35.455Z,37.88
2023-04-11T08:30:35.802Z,40.94
2023-04-11T08:31:36.112Z,42.57
2023-04-11T08:32:36.449Z,44.27
2023-04-11T08:33:36.659Z,44.55
2023-04-11T08:34:36.884Z,43.19
2023-04-11T08:35:37.149Z,43.87
2023-04-11T08:36:37.459Z,43.23
2023-04-11T08:37:37.895Z,41.30
2023-04-11T08:38:37.918Z,40.28
2023-04-11T08:39:38.124Z,39.66
2023-04-11T08:40:38.438Z,39.70
2023-04-11T08:41:38.793Z,39.75
2023-04-11T08:42:38.996Z,38.83
2023-04-11T08:43:39.346Z,38.30
2023-04-11T08:44:39.575Z,37.77
2023-04-11T08:45:39.996Z,39.01
2023-04-11T08:46:40.188Z,37.72
2023-04-11T08:47:41.096Z,40.42
2023-04-11T08:48:40.732Z,42.11
2023-04-11T08:49:40.945Z,43.95
2023-04-11T08:50:41.179Z,44.20
2023-04-11T08:51:41.506Z,45.43
2023-04-11T08:52:44.598Z,46.41
2023-04-11T08:53:42.093Z,47.85
2023-04-11T08:54:42.411Z,48.90
2023-04-11T08:55:42.711Z,48.99
2023-04-11T08:56:43.032Z,50.17
2023-04-11T08:57:43.330Z,52.04
2023-04-11T08:58:43.983Z,52.06
2023-04-11T08:59:43.935Z,51.56
2023-04-11T09:00:44.273Z,53.22
2023-04-11T09:01:44.686Z,52.11
2023-04-11T09:02:45.011Z,54.33
2023-04-11T09:03:45.195Z,53.70
2023-04-11T09:04:45.555Z,52.44
2023-04-11T09:05:45.827Z,53.47
2023-04-11T09:06:46.119Z,54.23
2023-04-11T09:07:46.456Z,54.51
2023-04-11T09:08:46.766Z,54.51
2023-04-11T09:09:47.102Z,56.12
2023-04-11T09:10:47.419Z,55.34
2023-04-11T09:11:47.693Z,53.65
2023-04-11T09:12:47.982Z,53.78
2023-04-11T09:13:48.308Z,54.79
2023-04-11T09:14:48.707Z,54.25
2023-04-11T09:15:48.966Z,54.76
2023-04-11T09:16:49.286Z,55.29
2023-04-11T09:17:49.622Z,54.58
2023-04-11T09:18:49.900Z,53.90
2023-04-11T09:19:50.230Z,53.09
2023-04-11T09:20:50.586Z,52.99
2023-04-11T09:21:50.873Z,53.60
2023-04-11T09:22:51.203Z,55.29
2023-04-11T09:23:51.514Z,53.78
2023-04-11T09:24:51.880Z,53.88
2023-04-11T09:25:52.160Z,53.58
2023-04-11T09:26:52.489Z,54.28
2023-04-11T09:27:52.783Z,53.78
2023-04-11T09:28:53.074Z,52.46
2023-04-11T09:29:53.422Z,52.67
2023-04-11T09:30:53.783Z,53.17
2023-04-11T09:31:54.063Z,55.19
2023-04-11T09:32:54.405Z,54.38
2023-04-11T09:33:55.031Z,53.45
2023-04-11T09:34:55.210Z,52.06
2023-04-11T09:35:55.346Z,53.78
2023-04-11T09:36:55.523Z,53.14
2023-04-11T09:37:55.864Z,53.75
2023-04-11T09:38:56.225Z,53.12
2023-04-11T09:39:56.433Z,51.71
2023-04-11T09:40:56.776Z,52.82
2023-04-11T09:41:56.993Z,52.82
2023-04-11T09:42:57.295Z,52.41
2023-04-11T09:43:57.843Z,52.92
2023-04-11T09:44:57.955Z,52.41
2023-04-11T09:45:58.110Z,51.53
2023-04-11T09:46:58.510Z,53.45
2023-04-11T09:47:58.769Z,53.05
2023-04-11T09:48:59.016Z,53.05
2023-04-11T09:49:59.332Z,54.76
2023-04-11T09:50:59.783Z,53.75
2023-04-11T09:51:59.881Z,52.56
2023-04-11T09:53:00.221Z,52.99
2023-04-11T09:54:00.551Z,53.09
2023-04-11T09:55:00.763Z,53.32
2023-04-11T09:56:01.103Z,51.93
2023-04-11T09:57:01.426Z,52.66
2023-04-11T09:58:01.773Z,55.10
2023-04-11T09:59:02.092Z,53.07
2023-04-11T10:00:02.409Z,53.07
2023-04-11T10:01:02.730Z,53.37
2023-04-11T10:02:03.185Z,54.16
2023-04-11T10:03:03.604Z,52.44
2023-04-11T10:04:03.710Z,53.55
2023-04-11T10:05:04.055Z,53.75
2023-04-11T10:06:04.369Z,54.23
2023-04-11T10:07:04.569Z,53.83
2023-04-11T10:08:04.871Z,52.89
2023-04-11T10:09:05.175Z,54.00
2023-04-11T10:10:05.493Z,54.11
2023-04-11T10:11:05.818Z,54.31
2023-04-11T10:12:06.117Z,54.41
2023-04-11T10:13:06.398Z,54.11
2023-04-11T10:14:06.741Z,54.41
2023-04-11T10:15:06.950Z,52.01
2023-04-11T10:16:07.301Z,49.90
2023-04-11T10:17:07.584Z,51.83
2023-04-11T10:18:07.973Z,51.83
2023-04-11T10:19:08.258Z,53.45
2023-04-11T10:20:08.545Z,53.96
2023-04-11T10:21:08.853Z,52.92
2023-04-11T10:22:09.149Z,52.92
2023-04-11T10:23:09.462Z,53.63
2023-04-11T10:24:09.838Z,54.00
2023-04-11T10:25:10.009Z,50.77
2023-04-11T10:26:10.322Z,51.78
2023-04-11T10:27:10.632Z,52.99
2023-04-11T10:28:10.925Z,50.37
2023-04-11T10:29:11.285Z,51.17
2023-04-11T10:30:11.530Z,49.98
2023-04-11T10:31:11.871Z,52.92
2023-04-11T10:32:12.193Z,53.02
2023-04-11T10:33:12.475Z,53.83
2023-04-11T10:34:12.774Z,53.02
2023-04-11T10:35:13.089Z,53.52
2023-04-11T10:36:13.431Z,55.44
2023-04-11T10:37:13.743Z,53.19
2023-04-11T10:38:14.018Z,51.07
2023-04-11T10:39:14.343Z,51.30
2023-04-11T10:40:14.678Z,52.19
2023-04-11T10:41:15.009Z,51.50
2023-04-11T10:42:15.308Z,52.01
2023-04-11T10:43:15.642Z,51.83
2023-04-11T10:44:15.986Z,51.14
2023-04-11T10:45:16.282Z,52.86
2023-04-11T10:46:16.651Z,53.17
2023-04-11T10:47:17.021Z,53.98
2023-04-11T10:48:17.176Z,54.69
2023-04-11T10:49:17.641Z,54.59
2023-04-11T10:50:17.812Z,55.19
2023-04-11T10:51:18.226Z,54.59
2023-04-11T10:52:18.392Z,55.17
2023-04-11T10:53:18.611Z,53.55
2023-04-11T10:54:18.962Z,51.42
2023-04-11T10:55:19.320Z,50.01
2023-04-11T10:56:19.567Z,51.32
2023-04-11T10:57:19.933Z,51.50
2023-04-11T10:58:20.229Z,51.81
2023-04-11T10:59:20.560Z,52.99
2023-04-11T11:00:20.882Z,54.03
2023-04-11T11:01:31.939Z,51.98
2023-04-11T11:02:22.584Z,52.79
2023-04-11T11:03:21.890Z,51.88
2023-04-11T11:04:22.179Z,50.74
2023-04-11T11:05:22.375Z,49.25
2023-04-11T11:06:22.696Z,48.85
2023-04-11T11:07:23.005Z,49.96
2023-04-11T11:08:23.345Z,51.17
2023-04-11T11:09:23.763Z,50.37
2023-04-11T11:10:23.885Z,50.57
2023-04-11T11:11:24.182Z,49.63
2023-04-11T11:12:24.505Z,50.74
2023-04-11T11:13:24.746Z,50.74
2023-04-11T11:14:25.053Z,49.33
2023-04-11T11:15:25.334Z,51.45
2023-04-11T11:16:25.646Z,49.91
2023-04-11T11:17:25.956Z,51.12
2023-04-11T11:18:26.289Z,50.52
2023-04-11T11:19:26.587Z,50.32
2023-04-11T11:20:26.921Z,50.01
2023-04-11T11:21:28.319Z,49.10
2023-04-11T11:22:27.542Z,50.12
2023-04-11T11:23:27.857Z,49.93
2023-04-11T11:24:28.175Z,49.73
2023-04-11T11:25:28.489Z,49.02
2023-04-11T11:26:28.812Z,50.77
2023-04-11T11:27:29.107Z,50.16
2023-04-11T11:29:29.760Z,50.06
2023-04-11T11:30:30.083Z,47.83
2023-04-11T11:31:30.402Z,48.14
2023-04-11T11:32:30.706Z,48.65
2023-04-11T11:33:31.026Z,48.44
2023-04-11T11:34:31.338Z,48.85
2023-04-11T11:35:31.649Z,48.54
2023-04-11T11:36:32.012Z,50.46
2023-04-11T11:37:32.281Z,49.45
2023-04-11T11:38:32.577Z,49.22
2023-04-11T11:39:32.948Z,49.43
2023-04-11T11:40:33.226Z,49.84
2023-04-11T11:41:33.504Z,47.00
2023-04-11T11:42:33.787Z,45.67
2023-04-11T11:43:34.070Z,47.79
2023-04-11T11:44:34.381Z,48.30
2023-04-11T11:45:34.671Z,49.01
2023-04-11T11:46:35.032Z,45.69
2023-04-11T11:47:35.351Z,47.19
2023-04-11T11:48:35.628Z,48.30
2023-04-11T11:49:35.993Z,49.01
2023-04-11T11:50:36.292Z,49.21
2023-04-11T11:51:36.605Z,50.12
2023-04-11T11:52:36.980Z,48.80
2023-04-11T11:53:37.277Z,49.01
2023-04-11T11:54:37.630Z,48.39
2023-04-11T11:55:38.065Z,48.60
2023-04-11T11:56:38.204Z,49.89
2023-04-11T11:57:38.538Z,45.57
2023-04-11T11:58:38.814Z,47.59
2023-04-11T11:59:39.111Z,47.28
2023-04-11T12:00:39.458Z,45.89
2023-04-11T12:01:39.804Z,47.61
2023-04-11T12:02:40.365Z,47.61
2023-04-11T12:03:40.684Z,48.32
2023-04-11T12:04:41.046Z,47.51
2023-04-11T12:05:41.086Z,47.31
2023-04-11T12:06:41.359Z,48.32
2023-04-11T12:07:41.668Z,47.41
2023-04-11T12:08:41.970Z,47.51
2023-04-11T12:09:42.286Z,48.42
2023-04-11T12:10:42.614Z,48.52
2023-04-11T12:11:42.910Z,48.32
2023-04-11T12:12:43.276Z,46.52
2023-04-11T12:13:43.547Z,48.16
2023-04-11T12:14:43.894Z,45.43
2023-04-11T12:15:44.227Z,46.77
2023-04-11T12:16:44.539Z,48.69
2023-04-11T12:17:44.841Z,47.98
2023-04-11T12:18:45.194Z,50.51
2023-04-11T12:19:45.535Z,50.41
2023-04-11T12:20:45.803Z,48.08
2023-04-11T12:21:46.137Z,47.98
2023-04-11T12:22:46.439Z,47.88
2023-04-11T12:23:46.784Z,48.67
2023-04-11T12:24:47.119Z,50.29
2023-04-11T12:25:47.453Z,50.69
2023-04-11T12:27:05.656Z,49.35
2023-04-11T12:27:49.141Z,47.23
2023-04-11T12:28:48.436Z,49.15
2023-04-11T12:29:48.707Z,47.83
2023-04-11T12:30:49.483Z,47.83
2023-04-11T12:31:49.461Z,47.61
2023-04-11T12:32:49.698Z,47.71
2023-04-11T12:33:49.906Z,47.13
2023-04-11T12:34:50.230Z,48.74
2023-04-11T12:35:50.544Z,49.43
2023-04-11T12:36:50.880Z,46.70
2023-04-11T12:37:51.198Z,46.70
2023-04-11T12:38:51.501Z,48.54
2023-04-11T12:39:51.840Z,47.83
2023-04-11T12:41:00.310Z,48.62
2023-04-11T12:41:53.456Z,47.81
2023-04-11T12:42:56.308Z,47.61
2023-04-11T12:43:54.050Z,47.41
2023-04-11T12:44:53.403Z,44.37
2023-04-11T12:45:53.706Z,46.28
2023-04-11T12:46:54.078Z,47.89
2023-04-11T12:47:54.577Z,45.47
2023-04-11T12:48:54.736Z,45.87
2023-04-11T12:49:54.924Z,46.68
2023-04-11T12:50:55.210Z,46.20
2023-04-11T12:51:55.554Z,46.20
2023-04-11T12:52:56.474Z,46.40
2023-04-11T12:53:56.184Z,48.10
2023-04-11T12:54:56.536Z,47.59
2023-04-11T12:55:56.901Z,48.19
2023-04-11T12:56:57.205Z,46.88